Time;durP1;ratioP1;P1;durP2;ratioP2;P2;SDS_P1;SDS_P2;PMS_P1;PMS_P2;Temp;Humidity;BMP_temperature;BMP_pressure;BME280_temperature;BME280_humidity;BME280_pressure;Samples;Min_cycle;Max_cycle;Signal;HPM_P1;HPM_P2
2023/06/06 00:03:55;;;;;;;10.80;4.60;;;;;;;11.56;62.60;100217.58;217845;1259;139397;-74
2023/06/06 00:08:58;;;;;;;7.10;4.60;;;;;;;11.58;62.91;100220.84;219624;1254;139039;-74
2023/06/06 00:14:02;;;;;;;5.90;3.50;;;;;;;11.61;63.23;100217.23;218461;1257;139635;-72
2023/06/06 00:19:05;;;;;;;5.00;3.80;;;;;;;11.56;63.00;100216.31;218188;1258;139751;-72
2023/06/06 00:24:08;;;;;;;9.90;4.70;;;;;;;11.49;63.32;100213.23;218786;1258;140221;-72
2023/06/06 00:29:11;;;;;;;13.10;5.50;;;;;;;11.43;63.67;100208.52;217918;1259;140027;-72
2023/06/06 00:34:14;;;;;;;14.80;3.90;;;;;;;11.40;63.70;100212.79;217879;1257;140806;-72
2023/06/06 00:39:17;;;;;;;6.70;4.00;;;;;;;11.36;63.90;100210.66;218882;1254;141461;-73
2023/06/06 00:44:23;;;;;;;7.20;4.70;;;;;;;11.35;64.15;100212.57;217987;1254;139841;-82
2023/06/06 00:49:26;;;;;;;6.10;4.70;;;;;;;11.30;63.94;100208.85;218075;1254;139976;-80
2023/06/06 00:54:31;;;;;;;7.50;4.30;;;;;;;11.21;64.20;100206.60;218237;1254;141760;-81
2023/06/06 00:59:35;;;;;;;9.40;3.80;;;;;;;11.12;64.07;100201.78;218031;1254;140649;-80
2023/06/06 01:04:43;;;;;;;5.00;3.70;;;;;;;11.05;64.28;100199.13;218178;1258;139778;-81
2023/06/06 01:09:47;;;;;;;11.30;4.50;;;;;;;10.96;64.43;100200.23;217983;1254;140397;-79
2023/06/06 01:15:10;;;;;;;4.70;3.60;;;;;;;10.85;64.43;100195.88;218369;1254;140139;-84
2023/06/06 01:20:15;;;;;;;8.10;4.40;;;;;;;10.78;64.90;100190.39;218334;1254;140298;-81
2023/06/06 01:25:19;;;;;;;6.20;3.60;;;;;;;10.75;65.26;100194.80;218093;1254;140717;-78
2023/06/06 01:30:26;;;;;;;4.30;3.90;;;;;;;10.66;65.09;100192.46;218358;1258;140046;-78
2023/06/06 01:35:44;;;;;;;7.10;3.80;;;;;;;10.58;65.29;100191.66;218031;1254;139986;-77
2023/06/06 01:40:51;;;;;;;3.60;3.20;;;;;;;10.49;65.32;100194.92;219480;1254;139736;-82
2023/06/06 01:45:55;;;;;;;5.00;3.20;;;;;;;10.43;65.40;100196.76;218880;1255;140731;-82
2023/06/06 01:50:58;;;;;;;4.80;3.50;;;;;;;10.35;65.37;100199.90;218254;1256;140070;-84
2023/06/06 01:56:01;;;;;;;5.20;3.60;;;;;;;10.29;65.57;100201.06;218260;1259;139605;-84
2023/06/06 02:01:04;;;;;;;5.80;4.00;;;;;;;10.23;65.62;100200.21;218722;1255;139201;-84
2023/06/06 02:06:08;;;;;;;4.30;3.90;;;;;;;10.13;65.42;100194.83;218055;1259;139912;-86
2023/06/06 02:11:10;;;;;;;5.10;4.30;;;;;;;9.98;65.53;100190.93;218058;1254;140126;-82
2023/06/06 02:16:16;;;;;;;7.00;5.10;;;;;;;9.92;65.92;100193.16;219067;1254;141481;-75
2023/06/06 02:21:18;;;;;;;7.70;4.10;;;;;;;9.91;66.18;100193.30;218672;1254;140013;-73
2023/06/06 02:26:22;;;;;;;7.00;4.30;;;;;;;9.83;66.27;100189.46;218028;1255;141296;-79
2023/06/06 02:31:26;;;;;;;5.00;4.40;;;;;;;9.77;66.38;100193.04;218783;1257;141898;-73
2023/06/06 02:36:29;;;;;;;5.70;3.30;;;;;;;9.73;66.64;100193.83;218747;1254;139577;-73
2023/06/06 02:41:33;;;;;;;9.10;4.70;;;;;;;9.66;66.48;100190.40;218060;1254;140682;-79
2023/06/06 02:46:36;;;;;;;7.40;4.50;;;;;;;9.60;66.95;100194.71;218187;1254;140235;-81
2023/06/06 02:51:40;;;;;;;3.70;3.30;;;;;;;9.62;66.98;100191.41;218046;1256;140566;-75
2023/06/06 02:56:43;;;;;;;5.10;4.20;;;;;;;9.59;67.11;100193.15;218311;1254;139623;-81
2023/06/06 03:01:48;;;;;;;5.00;3.80;;;;;;;9.57;67.37;100194.19;218104;1254;139644;-84
2023/06/06 03:06:53;;;;;;;4.50;3.60;;;;;;;9.64;67.67;100194.43;218728;1255;140594;-79
2023/06/06 03:11:55;;;;;;;8.50;3.70;;;;;;;9.76;67.96;100199.87;218823;1256;140021;-74
2023/06/06 03:16:59;;;;;;;6.00;4.00;;;;;;;9.83;67.94;100197.63;218610;1254;140231;-76
2023/06/06 03:22:04;;;;;;;6.10;4.90;;;;;;;9.92;68.07;100197.05;218626;1256;140309;-76
2023/06/06 03:27:07;;;;;;;5.80;4.80;;;;;;;10.01;68.34;100194.68;218114;1254;140297;-82
2023/06/06 03:32:10;;;;;;;10.70;4.50;;;;;;;10.15;68.65;100193.02;219301;1254;140386;-76
2023/06/06 03:37:13;;;;;;;9.50;6.10;;;;;;;10.34;68.68;100197.11;219148;1254;141128;-71
2023/06/06 03:42:15;;;;;;;9.90;4.40;;;;;;;10.71;68.56;100198.15;219588;1254;140849;-75
2023/06/06 03:47:18;;;;;;;4.80;4.20;;;;;;;11.24;68.50;100196.32;218369;1256;140418;-72
2023/06/06 03:52:20;;;;;;;9.90;4.30;;;;;;;11.62;68.46;100199.14;218456;1256;140275;-71
2023/06/06 03:57:22;;;;;;;32.40;6.80;;;;;;;12.03;67.94;100199.96;218611;1256;139573;-71
2023/06/06 04:02:27;;;;;;;7.30;3.90;;;;;;;12.39;67.89;100195.83;218117;1257;140343;-79
2023/06/06 04:07:33;;;;;;;7.00;4.00;;;;;;;12.72;67.60;100194.93;218861;1254;140730;-78
2023/06/06 04:12:39;;;;;;;3.70;3.40;;;;;;;12.93;67.42;100193.45;218616;1254;139551;-72
2023/06/06 04:17:42;;;;;;;;;;;;;;;13.46;66.83;100191.48;218360;1254;139958;-78
2023/06/06 04:22:46;;;;;;;10.20;4.70;;;;;;;14.42;66.13;100189.39;218282;1254;127977;-76
2023/06/06 04:27:48;;;;;;;4.10;3.70;;;;;;;15.16;65.80;100187.92;218154;1254;140005;-78
2023/06/06 04:32:53;;;;;;;8.00;3.90;;;;;;;15.89;65.10;100185.35;218246;1254;139603;-77
2023/06/06 04:37:58;;;;;;;3.70;3.20;;;;;;;16.95;63.57;100183.69;218232;1258;140534;-84
2023/06/06 04:43:02;;;;;;;6.20;3.60;;;;;;;19.16;60.94;100183.14;218252;1254;139572;-78
2023/06/06 04:48:07;;;;;;;4.70;3.00;;;;;;;19.89;59.54;100185.95;218360;1255;140498;-83
2023/06/06 04:53:10;;;;;;;5.10;2.90;;;;;;;20.70;57.63;100187.80;218155;1254;140144;-83
2023/06/06 04:58:16;;;;;;;2.90;2.60;;;;;;;21.23;56.32;100180.17;219004;1254;140892;-81
2023/06/06 05:03:20;;;;;;;5.10;2.90;;;;;;;21.89;54.67;100185.07;218426;1257;139785;-76
2023/06/06 05:08:24;;;;;;;4.50;2.20;;;;;;;23.66;51.93;100183.64;218522;1255;138489;-72
2023/06/06 05:13:27;;;;;;;10.90;2.40;;;;;;;26.59;48.52;100183.75;218456;1257;139187;-73
2023/06/06 05:18:30;;;;;;;9.10;3.20;;;;;;;29.16;45.15;100183.92;218159;1254;139331;-75
2023/06/06 05:23:34;;;;;;;4.60;2.30;;;;;;;31.36;41.62;100189.34;219091;1254;139480;-75
2023/06/06 05:28:38;;;;;;;20.70;2.70;;;;;;;33.13;38.22;100191.61;219934;1256;139802;-74
2023/06/06 05:33:43;;;;;;;10.00;2.20;;;;;;;34.26;35.00;100187.79;219141;1254;140203;-71
2023/06/06 05:38:46;;;;;;;4.40;2.00;;;;;;;35.35;32.10;100188.05;219212;1257;139310;-75
2023/06/06 05:43:50;;;;;;;2.30;1.70;;;;;;;36.67;30.11;100192.70;218416;1256;139002;-76
2023/06/06 05:48:52;;;;;;;4.10;2.00;;;;;;;37.92;27.58;100195.42;219260;1256;139184;-75
2023/06/06 05:53:55;;;;;;;4.60;1.60;;;;;;;39.03;26.00;100188.65;218535;1257;138923;-74
2023/06/06 05:59:15;;;;;;;8.30;1.60;;;;;;;39.85;24.67;100191.86;219060;1256;139279;-74
2023/06/06 06:04:19;;;;;;;9.50;3.10;;;;;;;40.99;23.09;100194.48;218551;1258;138769;-75
2023/06/06 06:09:23;;;;;;;4.40;1.60;;;;;;;41.38;21.83;100193.42;218698;1257;140071;-76
2023/06/06 06:14:27;;;;;;;71.10;5.90;;;;;;;41.94;20.77;100189.05;218419;1257;138933;-75
2023/06/06 06:19:30;;;;;;;2.00;1.30;;;;;;;41.74;19.94;100188.88;218133;1257;139224;-74
2023/06/06 06:24:33;;;;;;;4.70;1.50;;;;;;;41.90;19.38;100186.81;218369;1257;139882;-72
2023/06/06 06:29:37;;;;;;;4.90;1.40;;;;;;;41.96;18.65;100188.41;217985;1257;140218;-74
2023/06/06 06:34:40;;;;;;;6.90;1.40;;;;;;;41.79;18.23;100190.67;218206;1255;139123;-73
2023/06/06 06:39:48;;;;;;;0.80;0.80;;;;;;;41.50;17.80;100193.33;218190;1257;139340;-74
2023/06/06 06:44:53;;;;;;;2.80;1.00;;;;;;;40.11;17.41;100192.26;218351;1254;139137;-75
2023/06/06 06:49:58;;;;;;;2.00;0.90;;;;;;;39.56;17.59;100191.48;218072;1257;138986;-73
2023/06/06 06:55:03;;;;;;;2.20;1.30;;;;;;;38.79;18.13;100185.20;218291;1258;138948;-75
2023/06/06 07:00:18;;;;;;;1.10;1.10;;;;;;;38.38;18.36;100184.16;218163;1256;138877;-73
2023/06/06 07:05:22;;;;;;;2.30;1.00;;;;;;;38.68;18.27;100182.21;217880;1256;140831;-76
2023/06/06 07:10:28;;;;;;;2.00;1.30;;;;;;;38.03;18.26;100181.42;217952;1259;139187;-76
2023/06/06 07:15:37;;;;;;;6.80;2.00;;;;;;;38.15;18.40;100183.97;218327;1257;140643;-75
2023/06/06 07:20:41;;;;;;;1.80;1.60;;;;;;;38.19;18.45;100184.89;218167;1257;140045;-73
2023/06/06 07:25:45;;;;;;;4.00;1.00;;;;;;;37.88;18.40;100182.42;217820;1258;1237258;-74
2023/06/06 07:30:48;;;;;;;3.30;0.80;;;;;;;37.49;18.92;100180.82;217895;1259;138771;-74
2023/06/06 07:35:51;;;;;;;1.20;0.80;;;;;;;37.30;18.86;100175.05;218233;1259;150569;-74
2023/06/06 07:40:54;;;;;;;0.70;0.70;;;;;;;36.99;19.14;100175.64;218835;1255;139346;-73
2023/06/06 07:45:58;;;;;;;2.70;1.20;;;;;;;36.38;19.37;100172.77;218805;1255;138859;-74
2023/06/06 07:51:01;;;;;;;1.90;1.50;;;;;;;35.25;19.38;100171.59;218079;1257;139977;-74
2023/06/06 07:56:06;;;;;;;2.10;0.90;;;;;;;33.82;20.33;100165.56;218530;1257;141224;-74
2023/06/06 08:01:12;;;;;;;2.60;1.40;;;;;;;33.53;20.80;100160.95;218098;1256;139434;-74
2023/06/06 08:06:17;;;;;;;3.00;1.30;;;;;;;33.46;21.68;100154.95;218036;1259;139044;-74
2023/06/06 08:11:20;;;;;;;1.60;1.50;;;;;;;33.53;21.89;100152.81;218048;1256;138996;-73
2023/06/06 08:16:24;;;;;;;2.10;1.20;;;;;;;33.38;21.61;100149.58;218306;1254;139879;-74
2023/06/06 08:21:27;;;;;;;2.60;0.90;;;;;;;33.11;21.47;100148.61;218177;1257;139185;-73
2023/06/06 08:26:32;;;;;;;2.20;1.20;;;;;;;33.00;21.44;100149.52;218101;1256;138936;-72
2023/06/06 08:31:35;;;;;;;3.60;1.40;;;;;;;32.99;21.53;100145.15;218445;1256;139083;-73
2023/06/06 08:36:40;;;;;;;8.50;1.60;;;;;;;32.82;21.31;100145.95;218314;1254;139341;-70
2023/06/06 08:41:54;;;;;;;1.90;1.80;;;;;;;32.67;21.45;100139.05;218219;1255;139142;-72
2023/06/06 08:46:58;;;;;;;1.70;1.60;;;;;;;32.68;21.56;100136.91;218094;1257;140465;-73
2023/06/06 08:52:05;;;;;;;2.90;1.70;;;;;;;32.48;21.27;100136.79;218334;1259;139982;-73
2023/06/06 08:57:11;;;;;;;3.20;1.80;;;;;;;32.28;21.65;100126.07;217977;1259;139765;-73
2023/06/06 09:02:16;;;;;;;2.10;2.00;;;;;;;32.10;21.71;100125.23;218442;1258;140238;-73
2023/06/06 09:07:20;;;;;;;22.30;3.30;;;;;;;32.05;22.05;100120.45;218275;1257;139076;-73
2023/06/06 09:12:23;;;;;;;3.10;1.50;;;;;;;32.00;22.62;100112.79;218330;1259;140271;-73
2023/06/06 09:17:27;;;;;;;1.80;1.70;;;;;;;31.85;22.56;100114.02;218212;1257;138911;-73
2023/06/06 09:22:36;;;;;;;2.20;1.30;;;;;;;31.81;22.20;100113.57;219116;1256;138904;-72
2023/06/06 09:27:40;;;;;;;1.90;1.60;;;;;;;31.77;22.19;100106.80;218750;1254;139821;-73
2023/06/06 09:32:46;;;;;;;2.10;1.90;;;;;;;31.78;22.23;100105.10;219215;1257;139259;-74
2023/06/06 09:37:52;;;;;;;2.50;2.10;;;;;;;31.75;22.33;100105.90;218150;1257;140079;-72
2023/06/06 09:42:58;;;;;;;2.00;1.70;;;;;;;31.43;22.14;100100.02;218203;1259;139000;-75
2023/06/06 09:48:03;;;;;;;5.10;2.40;;;;;;;31.15;22.49;100101.08;218142;1259;139392;-75
2023/06/06 09:53:14;;;;;;;2.10;1.70;;;;;;;30.74;23.21;100092.19;218414;1259;140047;-72
2023/06/06 09:58:21;;;;;;;14.60;2.80;;;;;;;30.55;23.88;100090.23;218053;1258;140219;-73
2023/06/06 10:03:24;;;;;;;3.10;2.00;;;;;;;30.64;24.37;100082.40;218369;1255;140086;-72
2023/06/06 10:08:30;;;;;;;26.40;3.30;;;;;;;30.51;23.91;100081.27;218243;1259;139392;-72
2023/06/06 10:13:34;;;;;;;6.50;2.00;;;;;;;30.12;23.45;100081.31;218458;1254;139016;-73
2023/06/06 10:18:41;;;;;;;3.30;2.20;;;;;;;30.04;23.71;100082.62;218317;1257;139968;-74
2023/06/06 10:23:46;;;;;;;2.80;2.20;;;;;;;30.16;23.82;100075.59;218031;1257;139802;-72
2023/06/06 10:29:14;;;;;;;2.50;2.10;;;;;;;30.06;23.82;100072.98;218434;1258;139711;-72
2023/06/06 10:34:23;;;;;;;8.50;2.10;;;;;;;30.09;24.21;100069.99;217701;1259;139756;-71
2023/06/06 10:39:30;;;;;;;15.70;3.40;;;;;;;30.01;24.17;100066.89;218046;1257;138647;-72
2023/06/06 10:44:46;;;;;;;3.30;2.30;;;;;;;30.19;24.78;100065.61;218056;1259;140785;-72
2023/06/06 10:50:11;;;;;;;12.70;2.80;;;;;;;30.33;24.85;100065.30;218006;1259;140730;-72
2023/06/06 10:55:25;;;;;;;4.00;1.80;;;;;;;30.46;25.18;100064.32;218427;1259;139717;-71
2023/06/06 11:00:34;;;;;;;3.20;2.10;;;;;;;30.06;24.50;100061.77;218113;1259;139538;-71
2023/06/06 11:06:00;;;;;;;4.90;2.60;;;;;;;29.79;25.01;100059.05;218235;1258;138898;-71
2023/06/06 11:11:21;;;;;;;33.40;5.00;;;;;;;29.88;25.69;100053.14;218521;1257;140255;-74
2023/06/06 11:16:39;;;;;;;4.80;2.50;;;;;;;30.08;24.96;100047.90;219310;1254;141229;-73
2023/06/06 11:21:45;;;;;;;5.10;2.70;;;;;;;30.25;24.47;100046.88;218461;1259;140687;-68
2023/06/06 11:26:52;;;;;;;2.60;2.40;;;;;;;30.38;24.25;100044.41;219726;1255;140225;-69
2023/06/06 11:31:55;;;;;;;9.00;2.50;;;;;;;30.47;24.20;100035.82;217904;1255;138776;-71
2023/06/06 11:36:58;;;;;;;4.40;2.30;;;;;;;30.53;23.89;100039.32;217972;1260;139288;-73
2023/06/06 11:42:05;;;;;;;2.90;1.70;;;;;;;30.61;23.95;100038.24;218579;1254;139409;-74
2023/06/06 11:47:08;;;;;;;4.30;2.10;;;;;;;30.61;23.96;100040.59;219089;1259;139129;-74
2023/06/06 11:52:14;;;;;;;5.90;2.50;;;;;;;30.48;23.63;100035.29;218414;1254;139773;-71
2023/06/06 11:57:17;;;;;;;5.50;2.70;;;;;;;30.32;23.74;100037.84;218244;1254;141426;-80
2023/06/06 12:02:21;;;;;;;63.90;7.90;;;;;;;30.34;23.81;100030.73;218014;1259;141109;-75
2023/06/06 12:07:25;;;;;;;2.60;2.40;;;;;;;30.34;23.47;100029.85;217817;1260;139980;-69
2023/06/06 12:12:28;;;;;;;4.10;2.30;;;;;;;30.33;23.44;100022.30;218109;1259;139008;-67
2023/06/06 12:17:30;;;;;;;2.70;2.50;;;;;;;30.31;23.13;100020.05;217518;1259;138877;-71
2023/06/06 12:22:37;;;;;;;4.10;2.60;;;;;;;30.18;23.22;100010.12;217873;1254;151174;-77
2023/06/06 12:27:40;;;;;;;3.20;2.90;;;;;;;30.03;23.23;100003.02;218077;1257;139790;-74
2023/06/06 12:32:53;;;;;;;3.00;2.60;;;;;;;30.02;23.39;99998.67;218128;1259;139863;-72
2023/06/06 12:37:55;;;;;;;4.00;2.70;;;;;;;30.03;23.13;99999.08;218478;1258;139467;-77
2023/06/06 12:43:00;;;;;;;3.20;2.90;;;;;;;29.98;23.19;99991.34;218058;1260;139674;-79
2023/06/06 12:48:03;;;;;;;3.10;2.60;;;;;;;29.96;23.40;99991.30;217947;1257;140487;-77
2023/06/06 12:53:06;;;;;;;3.20;2.90;;;;;;;29.84;23.66;99989.99;217902;1254;139034;-76
2023/06/06 12:58:10;;;;;;;2.60;2.40;;;;;;;29.72;23.64;99986.73;218139;1259;139876;-78
2023/06/06 13:03:13;;;;;;;3.80;2.60;;;;;;;29.67;23.56;99980.65;218072;1258;138935;-74
2023/06/06 13:08:15;;;;;;;10.60;3.70;;;;;;;29.65;24.07;99980.47;218694;1254;139747;-73
2023/06/06 13:13:40;;;;;;;2.60;2.40;;;;;;;29.79;24.36;99981.00;217971;1258;139022;-75
2023/06/06 13:18:45;;;;;;;2.60;2.40;;;;;;;29.64;24.33;99976.11;218197;1257;236091;-74
2023/06/06 13:23:48;;;;;;;5.10;3.10;;;;;;;29.66;24.19;99972.46;218326;1254;139750;-74
2023/06/06 13:28:55;;;;;;;7.00;2.20;;;;;;;29.65;24.10;99972.98;218052;1259;139067;-73
2023/06/06 13:33:57;;;;;;;9.70;2.70;;;;;;;29.65;24.80;99976.69;218041;1259;139468;-75
2023/06/06 13:39:00;;;;;;;5.60;3.10;;;;;;;29.92;24.77;99967.17;217959;1257;139800;-74
2023/06/06 13:44:04;;;;;;;2.50;2.30;;;;;;;30.04;24.57;99958.66;217931;1259;140704;-69
2023/06/06 13:49:07;;;;;;;4.30;2.60;;;;;;;29.84;24.78;99952.86;217750;1257;139186;-69
2023/06/06 13:54:11;;;;;;;2.80;2.60;;;;;;;29.59;24.40;99944.77;218021;1257;139198;-71
2023/06/06 13:59:15;;;;;;;11.70;3.90;;;;;;;29.51;24.85;99942.52;218198;1257;139944;-81
2023/06/06 14:04:19;;;;;;;5.30;2.90;;;;;;;29.53;24.75;99935.81;218111;1254;140860;-73
2023/06/06 14:09:23;;;;;;;5.60;3.00;;;;;;;29.54;25.19;99932.95;218058;1257;140882;-75
2023/06/06 14:14:26;;;;;;;6.00;3.20;;;;;;;29.68;24.92;99932.95;218074;1254;139911;-72
2023/06/06 14:19:36;;;;;;;5.20;3.70;;;;;;;29.56;24.87;99930.58;218030;1259;139936;-71
2023/06/06 14:24:40;;;;;;;2.50;2.30;;;;;;;29.39;25.16;99933.35;217999;1254;139330;-71
2023/06/06 14:29:48;;;;;;;8.70;3.10;;;;;;;29.19;25.82;99931.66;218166;1256;139250;-71
2023/06/06 14:34:50;;;;;;;4.80;2.70;;;;;;;29.08;25.46;99930.69;217718;1257;139704;-75
2023/06/06 14:39:54;;;;;;;11.30;3.40;;;;;;;28.98;25.63;99923.63;218152;1259;139957;-70
2023/06/06 14:45:00;;;;;;;8.50;3.80;;;;;;;28.84;25.69;99923.63;218053;1259;139263;-70
2023/06/06 14:50:03;;;;;;;10.30;3.30;;;;;;;28.73;26.46;99917.63;218482;1257;139295;-67
2023/06/06 14:55:06;;;;;;;14.70;4.10;;;;;;;28.69;26.11;99916.80;218335;1257;139915;-72
2023/06/06 15:00:13;;;;;;;3.30;2.90;;;;;;;28.62;26.17;99914.65;218720;1254;139303;-72
2023/06/06 15:05:20;;;;;;;5.90;3.40;;;;;;;28.67;26.34;99905.55;218230;1254;139147;-71
2023/06/06 15:10:23;;;;;;;5.90;3.30;;;;;;;28.64;26.47;99904.61;218384;1257;139239;-73
2023/06/06 15:15:29;;;;;;;5.70;3.20;;;;;;;28.73;26.66;99902.23;218825;1254;138979;-73
2023/06/06 15:20:33;;;;;;;5.90;4.10;;;;;;;28.89;26.80;99896.11;218041;1254;140883;-73
2023/06/06 15:25:37;;;;;;;5.60;3.60;;;;;;;28.64;27.01;99895.98;218486;1254;140921;-79
2023/06/06 15:30:40;;;;;;;4.40;3.90;;;;;;;28.55;26.75;99900.73;218272;1255;140605;-81
2023/06/06 15:35:43;;;;;;;3.90;3.10;;;;;;;28.53;26.86;99897.54;218087;1254;139324;-72
2023/06/06 15:40:48;;;;;;;4.10;3.70;;;;;;;28.40;27.41;99894.55;218694;1254;139692;-75
2023/06/06 15:45:54;;;;;;;4.50;3.40;;;;;;;28.38;27.54;99889.65;218130;1259;140296;-70
2023/06/06 15:50:57;;;;;;;7.30;3.40;;;;;;;28.14;27.35;99889.73;218816;1254;139126;-72
2023/06/06 15:56:00;;;;;;;6.30;3.90;;;;;;;27.95;27.72;99890.81;218233;1259;139151;-74
2023/06/06 16:01:03;;;;;;;4.90;3.60;;;;;;;27.87;27.92;99887.90;218366;1254;139295;-75
2023/06/06 16:06:07;;;;;;;9.40;3.90;;;;;;;27.85;27.96;99889.56;218184;1255;139334;-72
2023/06/06 16:11:11;;;;;;;4.20;3.00;;;;;;;27.84;27.88;99883.65;218159;1254;141241;-72
2023/06/06 16:16:14;;;;;;;7.70;3.90;;;;;;;27.84;28.00;99886.71;218244;1257;139527;-70
2023/06/06 16:21:18;;;;;;;4.70;3.40;;;;;;;27.92;28.46;99881.09;218668;1254;139154;-69
2023/06/06 16:26:24;;;;;;;7.30;3.30;;;;;;;27.96;28.18;99879.80;218339;1254;139282;-76
2023/06/06 16:31:31;;;;;;;7.20;4.10;;;;;;;27.96;28.10;99879.19;217959;1258;138935;-68
2023/06/06 16:36:41;;;;;;;3.30;3.00;;;;;;;27.97;27.93;99880.94;218402;1254;140045;-70
2023/06/06 16:41:51;;;;;;;3.50;3.30;;;;;;;27.92;28.19;99885.95;218220;1254;139469;-69
2023/06/06 16:47:07;;;;;;;5.20;3.10;;;;;;;27.94;28.12;99887.31;218771;1254;150781;-69
2023/06/06 16:52:13;;;;;;;16.40;3.70;;;;;;;27.71;28.19;99889.95;220594;1254;139978;-68
2023/06/06 16:57:20;;;;;;;6.20;3.80;;;;;;;27.51;28.61;99894.54;220151;1254;141019;-67
2023/06/06 17:02:27;;;;;;;5.50;3.60;;;;;;;27.38;28.51;99893.73;220756;1254;140547;-70
2023/06/06 17:07:32;;;;;;;5.60;4.20;;;;;;;27.33;28.40;99889.91;220613;1254;139860;-68
2023/06/06 17:12:40;;;;;;;4.70;3.90;;;;;;;27.40;28.66;99891.70;218391;1254;139280;-76
2023/06/06 17:17:44;;;;;;;4.40;3.60;;;;;;;27.40;28.67;99894.73;217986;1255;138904;-71
2023/06/06 17:22:50;;;;;;;4.10;3.70;;;;;;;27.29;29.24;99894.16;218668;1256;139018;-77
2023/06/06 17:27:55;;;;;;;15.90;4.90;;;;;;;27.15;30.02;99891.39;218595;1254;139485;-70
2023/06/06 17:33:00;;;;;;;33.70;5.30;;;;;;;27.02;30.13;99891.23;218885;1259;139280;-67
2023/06/06 17:38:04;;;;;;;6.50;4.00;;;;;;;26.90;30.22;99893.00;218114;1259;139840;-71
2023/06/06 17:43:09;;;;;;;7.70;4.30;;;;;;;26.70;30.68;99894.36;218203;1256;138981;-68
2023/06/06 17:48:13;;;;;;;4.10;3.30;;;;;;;26.46;30.67;99897.44;218056;1259;140454;-71
2023/06/06 17:53:16;;;;;;;6.30;4.30;;;;;;;26.23;30.92;99900.56;217761;1259;139304;-71
2023/06/06 17:58:22;;;;;;;4.10;3.40;;;;;;;26.05;30.78;99898.09;218113;1257;139056;-68
2023/06/06 18:03:26;;;;;;;3.90;3.50;;;;;;;25.89;30.78;99899.68;218107;1258;138904;-68
2023/06/06 18:08:32;;;;;;;5.90;3.00;;;;;;;25.75;31.34;99898.90;218450;1254;138846;-68
2023/06/06 18:13:35;;;;;;;6.50;3.70;;;;;;;25.55;31.59;99903.66;218260;1254;139295;-67
2023/06/06 18:18:38;;;;;;;8.10;4.40;;;;;;;25.30;31.43;99905.23;218593;1258;140015;-68
2023/06/06 18:23:44;;;;;;;7.60;4.00;;;;;;;25.08;31.91;99906.52;218857;1254;139373;-68
2023/06/06 18:28:47;;;;;;;6.40;4.10;;;;;;;24.91;32.80;99915.99;218992;1258;139682;-68
2023/06/06 18:33:53;;;;;;;8.20;4.30;;;;;;;24.74;33.30;99919.30;218436;1257;139169;-70
2023/06/06 18:38:57;;;;;;;9.60;4.10;;;;;;;24.57;34.41;99923.91;219160;1256;139232;-67
2023/06/06 18:44:01;;;;;;;16.80;4.10;;;;;;;24.40;35.45;99922.91;218124;1258;140394;-68
2023/06/06 18:49:05;;;;;;;16.20;5.00;;;;;;;24.23;36.17;99926.52;220725;1256;139436;-67
2023/06/06 18:54:09;;;;;;;13.40;5.00;;;;;;;24.03;36.72;99931.25;220655;1256;140121;-66
2023/06/06 18:59:12;;;;;;;13.50;4.10;;;;;;;23.88;37.44;99935.90;217910;1256;144229;-69
2023/06/06 19:04:15;;;;;;;10.90;4.80;;;;;;;23.73;38.22;99941.97;219328;1256;139385;-71
2023/06/06 19:09:19;;;;;;;7.70;4.30;;;;;;;23.56;38.71;99949.91;217848;1259;139388;-72
2023/06/06 19:14:25;;;;;;;7.50;4.10;;;;;;;23.36;39.11;99952.66;218122;1256;138930;-68
2023/06/06 19:19:29;;;;;;;11.50;4.70;;;;;;;23.16;40.06;99958.55;219139;1256;140636;-72
2023/06/06 19:24:33;;;;;;;8.90;4.50;;;;;;;22.96;40.03;99962.55;217938;1256;408778;-69
2023/06/06 19:29:36;;;;;;;7.90;4.10;;;;;;;22.74;40.17;99961.99;218666;1254;138835;-66
2023/06/06 19:34:40;;;;;;;5.20;4.60;;;;;;;22.54;40.37;99964.89;218582;1254;139561;-71
2023/06/06 19:39:51;;;;;;;9.50;4.60;;;;;;;22.31;40.02;99971.78;218200;1254;140852;-67
2023/06/06 19:44:55;;;;;;;4.00;3.20;;;;;;;22.07;39.99;99976.26;218411;1256;138961;-69
2023/06/06 19:50:03;;;;;;;4.90;3.70;;;;;;;21.89;39.74;99977.12;218426;1254;138459;-70
2023/06/06 19:55:11;;;;;;;4.40;3.80;;;;;;;21.68;40.01;99983.52;218607;1254;139996;-67
2023/06/06 20:00:15;;;;;;;5.70;3.30;;;;;;;21.51;40.38;99986.41;218209;1256;140476;-69
2023/06/06 20:05:19;;;;;;;5.80;4.20;;;;;;;21.37;40.56;99993.08;218671;1256;139294;-69
2023/06/06 20:10:24;;;;;;;20.00;5.10;;;;;;;21.17;40.72;100000.14;218172;1254;139968;-67
2023/06/06 20:15:32;;;;;;;11.50;5.50;;;;;;;20.95;41.08;100010.81;220095;1254;140656;-67
2023/06/06 20:20:40;;;;;;;;;;;;;;;20.77;41.66;100014.42;218676;1256;140264;-68
2023/06/06 20:26:03;;;;;;;13.10;5.30;;;;;;;20.59;42.25;100013.66;218989;1256;126002;-67
2023/06/06 20:31:09;;;;;;;15.80;5.30;;;;;;;20.43;42.89;100010.21;219293;1254;139344;-68
2023/06/06 20:36:14;;;;;;;8.50;5.50;;;;;;;20.31;43.62;100009.66;219422;1254;140963;-67
2023/06/06 20:41:22;;;;;;;7.20;5.00;;;;;;;20.22;44.22;100010.16;220631;1256;140470;-68
2023/06/06 20:46:26;;;;;;;12.40;5.30;;;;;;;20.13;44.67;100012.83;219750;1256;140123;-67
2023/06/06 20:51:29;;;;;;;6.10;4.80;;;;;;;20.01;45.27;100016.88;220579;1254;139521;-68
2023/06/06 20:56:34;;;;;;;12.10;6.30;;;;;;;19.84;45.82;100021.80;218992;1256;139335;-71
2023/06/06 21:01:39;;;;;;;5.30;4.70;;;;;;;19.72;46.48;100022.54;218716;1254;139481;-71
2023/06/06 21:06:43;;;;;;;6.40;5.30;;;;;;;19.71;47.50;100025.58;218387;1254;140453;-69
2023/06/06 21:11:50;;;;;;;9.60;5.20;;;;;;;19.65;48.22;100027.10;218755;1254;139455;-66
2023/06/06 21:16:55;;;;;;;6.80;5.80;;;;;;;19.58;48.45;100027.18;217949;1254;140580;-69
2023/06/06 21:21:57;;;;;;;5.80;5.10;;;;;;;19.46;49.17;100021.83;218574;1255;140961;-67
2023/06/06 21:27:01;;;;;;;12.80;5.20;;;;;;;19.19;49.20;100024.94;218507;1256;139362;-69
2023/06/06 21:32:05;;;;;;;13.00;6.60;;;;;;;18.94;49.99;100025.05;218255;1256;139349;-69
2023/06/06 21:37:09;;;;;;;10.50;5.80;;;;;;;18.85;50.67;100026.27;218027;1258;140311;-69
2023/06/06 21:42:12;;;;;;;10.60;5.50;;;;;;;18.75;51.29;100019.41;218516;1254;139280;-69
2023/06/06 21:47:15;;;;;;;6.30;5.70;;;;;;;18.62;51.57;100012.27;218082;1256;141162;-69
2023/06/06 21:52:18;;;;;;;7.10;5.90;;;;;;;18.47;52.18;100008.46;218334;1256;139249;-69
2023/06/06 21:57:22;;;;;;;7.60;5.90;;;;;;;18.32;52.42;100011.48;217896;1256;139754;-68
2023/06/06 22:02:25;;;;;;;6.70;5.90;;;;;;;18.12;53.19;100012.01;219390;1254;139841;-70
2023/06/06 22:07:29;;;;;;;9.70;6.10;;;;;;;18.02;53.98;100010.93;218125;1254;139487;-69
2023/06/06 22:12:34;;;;;;;6.20;5.60;;;;;;;17.87;54.38;100007.05;218306;1258;139638;-70
2023/06/06 22:17:37;;;;;;;9.40;6.50;;;;;;;17.81;55.02;100004.87;219258;1254;139284;-71
2023/06/06 22:22:40;;;;;;;8.30;6.70;;;;;;;17.78;55.12;100006.33;219480;1254;139260;-71
2023/06/06 22:27:44;;;;;;;8.70;6.80;;;;;;;17.76;55.69;99998.83;218854;1256;139128;-71
2023/06/06 22:32:49;;;;;;;9.80;5.60;;;;;;;17.73;55.90;99998.11;218991;1253;139037;-70
2023/06/06 22:37:56;;;;;;;8.80;6.00;;;;;;;17.65;56.34;99997.85;219049;1254;138737;-69
2023/06/06 22:43:00;;;;;;;6.70;5.80;;;;;;;17.48;56.70;99995.84;218278;1254;139858;-69
2023/06/06 22:48:03;;;;;;;8.20;6.80;;;;;;;17.32;57.34;99992.33;219303;1254;138928;-70
2023/06/06 22:53:07;;;;;;;6.00;5.40;;;;;;;17.22;57.84;99994.76;218484;1257;138788;-70
2023/06/06 22:58:12;;;;;;;7.10;6.30;;;;;;;17.14;57.99;99996.92;218198;1258;139437;-69
2023/06/06 23:03:17;;;;;;;6.00;5.30;;;;;;;17.03;58.56;99990.86;218151;1254;139034;-68
2023/06/06 23:08:20;;;;;;;7.10;6.40;;;;;;;16.87;58.87;99992.15;218242;1259;139288;-69
2023/06/06 23:13:24;;;;;;;8.10;7.20;;;;;;;16.71;59.14;99990.48;218181;1254;140072;-70